createdAt,value
2023-04-10T00:01:19.554Z,27.75
2023-04-10T00:03:48.579Z,29.73
2023-04-10T00:06:17.678Z,27.63
2023-04-10T00:08:46.612Z,30.08
2023-04-10T00:11:16.788Z,28.98
2023-04-10T00:13:45.728Z,25.90
2023-04-10T00:16:14.709Z,24.83
2023-04-10T00:18:44.992Z,30.27
2023-04-10T00:21:13.953Z,26.02
2023-04-10T00:23:42.906Z,23.90
2023-04-10T00:26:11.778Z,27.80
2023-04-10T00:28:41.871Z,23.95
2023-04-10T00:31:10.830Z,27.50
2023-04-10T00:33:39.724Z,26.25
2023-04-10T00:36:10.325Z,26.20
2023-04-10T00:38:40.081Z,26.35
2023-04-10T00:41:09.173Z,27.10
2023-04-10T00:43:38.178Z,25.83
2023-04-10T00:46:07.495Z,23.20
2023-04-10T00:48:36.747Z,25.80
2023-04-10T00:51:07.324Z,27.17
2023-04-10T00:53:37.736Z,24.30
2023-04-10T00:56:08.983Z,26.70
2023-04-10T00:58:38.368Z,28.27
2023-04-10T01:01:08.709Z,34.85
2023-04-10T01:03:39.078Z,32.40
2023-04-10T01:06:20.459Z,34.72
2023-04-10T01:09:01.727Z,40.65
2023-04-10T01:11:46.344Z,35.55
2023-04-10T01:14:29.014Z,32.20
2023-04-10T01:17:05.067Z,36.72
2023-04-10T01:20:01.124Z,35.90
2023-04-10T01:22:37.015Z,31.50
2023-04-10T01:25:31.286Z,30.60
2023-04-10T01:28:18.469Z,35.85
2023-04-10T01:30:52.332Z,38.70
2023-04-10T01:33:27.757Z,40.70
2023-04-10T01:35:59.462Z,41.15
2023-04-10T01:38:31.664Z,38.80
2023-04-10T01:41:02.215Z,32.38
2023-04-10T01:43:36.083Z,44.47
2023-04-10T01:46:08.141Z,34.25
2023-04-10T01:48:37.273Z,38.78
2023-04-10T01:51:10.629Z,36.13
2023-04-10T01:53:41.163Z,42.10
2023-04-10T01:56:11.218Z,36.33
2023-04-10T01:58:48.548Z,38.85
2023-04-10T02:01:29.621Z,35.17
2023-04-10T02:04:00.475Z,35.17
2023-04-10T02:06:42.033Z,37.50
2023-04-10T02:09:19.892Z,55.47
2023-04-10T02:11:55.847Z,41.17
2023-04-10T02:14:29.358Z,66.28
2023-04-10T02:17:02.567Z,52.58
2023-04-10T02:19:34.114Z,36.45
2023-04-10T02:22:06.111Z,77.40
2023-04-10T02:24:36.830Z,91.72
2023-04-10T02:27:06.508Z,35.03
2023-04-10T02:29:35.601Z,70.55
2023-04-10T02:32:08.107Z,45.85
2023-04-10T02:34:37.084Z,39.50
2023-04-10T02:37:07.820Z,128.18
2023-04-10T02:39:37.207Z,100.35
2023-04-10T02:42:06.645Z,72.07
2023-04-10T02:44:36.183Z,72.38
2023-04-10T02:47:07.158Z,116.35
2023-04-10T02:49:38.109Z,58.03
2023-04-10T02:52:14.130Z,71.05
2023-04-10T02:54:43.174Z,53.05
2023-04-10T02:57:12.330Z,36.45
2023-04-10T02:59:41.401Z,50.42
2023-04-10T03:02:12.427Z,41.72
2023-04-10T03:04:42.249Z,61.85
2023-04-10T03:07:12.429Z,52.47
2023-04-10T03:09:42.018Z,103.05
2023-04-10T03:12:11.274Z,97.75
2023-04-10T03:14:40.767Z,106.47
2023-04-10T03:17:12.265Z,97.63
2023-04-10T03:19:41.589Z,41.97
2023-04-10T03:22:10.911Z,70.05
2023-04-10T03:24:42.146Z,34.03
2023-04-10T03:27:11.219Z,70.85
2023-04-10T03:29:40.737Z,97.88
2023-04-10T03:32:11.139Z,58.65
2023-04-10T03:34:40.195Z,53.17
2023-04-10T03:37:09.267Z,49.30
2023-04-10T03:39:38.333Z,45.28
2023-04-10T03:42:07.386Z,56.10
2023-04-10T03:44:36.954Z,40.17
2023-04-10T03:47:06.330Z,35.28
2023-04-10T03:49:36.851Z,29.27
2023-04-10T03:52:08.831Z,33.92
2023-04-10T03:54:38.253Z,26.00
2023-04-10T03:57:07.924Z,30.67
2023-04-10T03:59:38.938Z,28.17
2023-04-10T04:02:13.175Z,31.60
2023-04-10T04:04:46.028Z,31.33
2023-04-10T04:07:23.314Z,32.58
2023-04-10T04:10:03.726Z,33.08
2023-04-10T04:13:11.200Z,34.63
2023-04-10T04:15:51.319Z,33.67
2023-04-10T04:18:38.534Z,33.22
2023-04-10T04:21:25.957Z,33.28
2023-04-10T04:24:24.189Z,29.88
2023-04-10T04:27:16.708Z,30.45
2023-04-10T04:29:52.746Z,28.00
2023-04-10T04:32:27.714Z,33.85
2023-04-10T04:35:03.372Z,35.00
2023-04-10T04:37:46.134Z,40.67
2023-04-10T04:40:23.886Z,38.33
2023-04-10T04:43:19.092Z,46.42
2023-04-10T04:46:14.663Z,35.88
2023-04-10T04:49:12.423Z,37.00
2023-04-10T04:51:56.037Z,35.92
2023-04-10T04:54:37.008Z,38.55
2023-04-10T04:57:34.990Z,27.10
2023-04-10T05:00:22.634Z,34.65
2023-04-10T05:02:51.728Z,31.30
2023-04-10T05:05:44.438Z,32.28
2023-04-10T05:08:38.424Z,37.63
2023-04-10T05:11:14.313Z,32.90
2023-04-10T05:14:07.480Z,34.47
2023-04-10T05:17:15.155Z,29.20
2023-04-10T05:19:47.450Z,30.92
2023-04-10T05:22:35.540Z,31.80
2023-04-10T05:25:37.001Z,36.63
2023-04-10T05:28:16.959Z,29.17
2023-04-10T05:31:14.456Z,30.35
2023-04-10T05:33:57.710Z,30.23
2023-04-10T05:36:48.129Z,34.13
2023-04-10T05:39:22.701Z,31.60
2023-04-10T05:42:13.995Z,28.02
2023-04-10T05:45:08.813Z,26.90
2023-04-10T05:48:02.706Z,28.25
2023-04-10T05:50:43.966Z,26.90
2023-04-10T05:53:21.272Z,29.90
2023-04-10T05:56:06.312Z,26.67
2023-04-10T05:59:01.360Z,27.52
2023-04-10T06:01:59.725Z,26.08
2023-04-10T06:04:29.093Z,25.05
2023-04-10T06:07:01.342Z,27.05
2023-04-10T06:09:30.775Z,25.23
2023-04-10T06:11:59.727Z,27.85
2023-04-10T06:14:28.742Z,25.67
2023-04-10T06:17:02.230Z,24.25
2023-04-10T06:19:31.384Z,23.63
2023-04-10T06:22:00.584Z,23.70
2023-04-10T06:24:29.705Z,23.58
2023-04-10T06:26:58.776Z,22.23
2023-04-10T06:29:27.846Z,23.27
2023-04-10T06:31:56.998Z,22.88
2023-04-10T06:34:27.924Z,20.45
2023-04-10T06:37:03.736Z,22.35
2023-04-10T06:39:32.970Z,18.80
2023-04-10T06:42:03.629Z,18.90
2023-04-10T06:44:45.486Z,22.60
2023-04-10T06:47:17.014Z,18.88
2023-04-10T06:49:47.462Z,23.02
2023-04-10T06:52:16.718Z,19.67
2023-04-10T06:54:46.449Z,19.92
2023-04-10T06:57:21.958Z,20.15
2023-04-10T06:59:50.936Z,19.42
2023-04-10T07:02:20.192Z,18.02
2023-04-10T07:04:51.836Z,18.27
2023-04-10T07:07:20.923Z,16.98
2023-04-10T07:09:50.005Z,18.27
2023-04-10T07:12:19.039Z,17.83
2023-04-10T07:14:49.270Z,16.48
2023-04-10T07:17:18.347Z,19.08
2023-04-10T07:19:47.335Z,19.95
2023-04-10T07:22:17.800Z,18.35
2023-04-10T07:24:46.828Z,15.73
2023-04-10T07:27:17.103Z,19.40
2023-04-10T07:29:46.106Z,16.52
2023-04-10T07:32:15.443Z,15.80
2023-04-10T07:34:44.843Z,15.52
2023-04-10T07:37:13.829Z,17.38
2023-04-10T07:39:44.205Z,16.17
2023-04-10T07:42:13.359Z,17.70
2023-04-10T07:44:42.379Z,15.60
2023-04-10T07:47:11.514Z,18.83
2023-04-10T07:49:41.309Z,17.17
2023-04-10T07:52:10.526Z,15.23
2023-04-10T07:54:39.511Z,15.52
2023-04-10T07:57:09.985Z,15.57
2023-04-10T07:59:39.165Z,16.52
2023-04-10T08:02:08.364Z,17.15
2023-04-10T08:04:37.507Z,14.90
2023-04-10T08:07:07.011Z,18.27
2023-04-10T08:09:36.276Z,18.40
2023-04-10T08:12:05.646Z,15.15
2023-04-10T08:14:36.149Z,16.02
2023-04-10T08:17:05.688Z,19.15
2023-04-10T08:19:35.632Z,23.48
2023-04-10T08:22:05.307Z,21.08
2023-04-10T08:24:34.300Z,24.95
2023-04-10T08:27:03.516Z,22.70
2023-04-10T08:29:33.012Z,22.65
2023-04-10T08:32:03.851Z,22.02
2023-04-10T08:34:33.051Z,20.90
2023-04-10T08:37:06.091Z,23.23
2023-04-10T08:39:36.942Z,27.35
2023-04-10T08:42:08.089Z,22.48
2023-04-10T08:44:37.441Z,24.05
2023-04-10T08:47:09.612Z,23.80
2023-04-10T08:49:46.893Z,23.45
2023-04-10T08:54:52.581Z,24.88
2023-04-10T08:57:22.701Z,23.77
2023-04-10T08:59:52.948Z,26.15
2023-04-10T09:02:23.927Z,26.35
2023-04-10T09:04:57.048Z,23.48
2023-04-10T09:07:28.476Z,24.65
2023-04-10T09:09:58.013Z,24.90
2023-04-10T09:12:27.268Z,22.00
2023-04-10T09:14:58.359Z,24.95
2023-04-10T09:17:28.859Z,23.17
2023-04-10T09:19:58.109Z,22.30
2023-04-10T09:22:35.046Z,21.92
2023-04-10T09:25:08.809Z,19.95
2023-04-10T09:27:42.244Z,21.70
2023-04-10T09:30:12.123Z,25.27
2023-04-10T09:32:45.813Z,24.80
2023-04-10T09:35:16.912Z,20.58
2023-04-10T09:37:48.539Z,25.40
2023-04-10T09:40:26.033Z,25.00
2023-04-10T09:45:25.734Z,22.85
2023-04-10T09:48:08.123Z,19.38
2023-04-10T09:50:40.435Z,21.67
2023-04-10T09:53:10.493Z,20.73
2023-04-10T09:55:40.007Z,19.20
2023-04-10T09:58:10.039Z,20.10
2023-04-10T10:00:42.480Z,19.13
2023-04-10T10:03:17.092Z,18.17
2023-04-10T10:05:51.058Z,18.15
2023-04-10T10:08:21.033Z,18.35
2023-04-10T10:10:55.710Z,22.30
2023-04-10T10:13:32.339Z,20.13
2023-04-10T10:16:09.925Z,16.70
2023-04-10T10:18:48.477Z,16.58
2023-04-10T10:21:19.681Z,17.17
2023-04-10T10:23:53.988Z,20.38
2023-04-10T10:26:24.523Z,15.18
2023-04-10T10:28:54.060Z,16.10
2023-04-10T10:31:24.335Z,17.83
2023-04-10T10:33:56.958Z,17.17
2023-04-10T10:36:27.371Z,16.58
2023-04-10T10:39:14.866Z,20.48
2023-04-10T10:41:51.156Z,23.33
2023-04-10T10:44:30.995Z,18.55
2023-04-10T10:47:11.470Z,21.25
2023-04-10T10:49:59.843Z,19.52
2023-04-10T10:52:49.326Z,19.45
2023-04-10T10:55:38.606Z,18.85
2023-04-10T10:58:09.424Z,17.20
2023-04-10T11:01:15.680Z,17.00
2023-04-10T11:03:46.351Z,16.73
2023-04-10T11:06:20.116Z,16.42
2023-04-10T11:08:53.016Z,16.77
2023-04-10T11:11:24.373Z,15.82
2023-04-10T11:14:21.514Z,15.32
2023-04-10T11:16:50.748Z,14.40
2023-04-10T11:19:23.403Z,15.23
2023-04-10T11:22:09.225Z,16.85
2023-04-10T11:25:03.151Z,17.15
2023-04-10T11:27:48.847Z,16.92
2023-04-10T11:30:41.245Z,17.10
2023-04-10T11:33:10.442Z,16.17
2023-04-10T11:35:40.477Z,13.52
2023-04-10T11:38:16.792Z,14.90
2023-04-10T11:41:04.562Z,13.00
2023-04-10T11:43:35.650Z,14.27
2023-04-10T11:46:08.153Z,12.70
2023-04-10T11:48:38.502Z,13.00
2023-04-10T11:51:12.517Z,13.45
2023-04-10T11:53:43.921Z,10.07
2023-04-10T11:56:25.158Z,11.25
2023-04-10T11:58:54.985Z,12.88
2023-04-10T12:01:24.951Z,12.68
2023-04-10T12:03:54.134Z,13.60
2023-04-10T12:06:23.624Z,13.23
2023-04-10T12:08:54.746Z,13.20
2023-04-10T12:11:25.711Z,12.30
2023-04-10T12:13:57.033Z,11.65
2023-04-10T12:16:27.414Z,12.35
2023-04-10T12:18:57.513Z,11.55
2023-04-10T12:21:27.414Z,10.77
2023-04-10T12:23:57.961Z,12.88
2023-04-10T12:26:27.036Z,10.43
2023-04-10T12:28:58.729Z,12.45
2023-04-10T12:31:31.919Z,11.30
2023-04-10T12:34:02.287Z,10.60
2023-04-10T12:36:34.824Z,9.43
2023-04-10T12:39:06.585Z,9.00
2023-04-10T12:41:36.678Z,9.82
2023-04-10T12:44:11.641Z,8.52
2023-04-10T12:46:41.983Z,9.55
2023-04-10T12:49:13.022Z,8.48
2023-04-10T12:51:47.758Z,9.23
2023-04-10T12:54:33.242Z,11.25
2023-04-10T12:57:04.053Z,11.63
2023-04-10T12:59:33.940Z,11.13
2023-04-10T13:02:03.048Z,12.57
2023-04-10T13:04:33.269Z,12.60
2023-04-10T13:07:03.008Z,12.10
2023-04-10T13:09:33.412Z,12.85
2023-04-10T13:12:04.001Z,11.77
2023-04-10T13:14:33.253Z,11.75
2023-04-10T13:17:02.249Z,8.65
2023-04-10T13:19:31.375Z,9.57
2023-04-10T13:22:01.371Z,8.90
2023-04-10T13:24:30.441Z,7.95
2023-04-10T13:27:01.484Z,9.63
2023-04-10T13:29:30.448Z,9.05
2023-04-10T13:32:01.312Z,9.80
2023-04-10T13:34:31.295Z,9.68
2023-04-10T13:37:00.565Z,8.50
2023-04-10T13:39:31.531Z,11.02
2023-04-10T13:42:02.572Z,8.93
2023-04-10T13:44:32.343Z,8.82
2023-04-10T13:47:01.488Z,8.73
2023-04-10T13:49:31.371Z,9.30
2023-04-10T13:52:00.392Z,9.50
2023-04-10T13:54:29.458Z,9.68
2023-04-10T13:56:59.410Z,8.45
2023-04-10T13:59:29.934Z,10.70
2023-04-10T14:01:59.070Z,10.43
2023-04-10T14:04:28.101Z,8.23
2023-04-10T14:07:00.504Z,7.88
2023-04-10T14:09:29.690Z,8.82
2023-04-10T14:11:58.940Z,7.38
2023-04-10T14:14:29.348Z,8.23
2023-04-10T14:16:59.202Z,8.93
2023-04-10T14:19:28.414Z,7.88
2023-04-10T14:21:57.450Z,9.98
2023-04-10T14:24:26.539Z,9.95
2023-04-10T14:26:58.370Z,9.23
2023-04-10T14:29:37.301Z,7.03
2023-04-10T14:32:08.479Z,8.70
2023-04-10T14:34:37.572Z,6.97
2023-04-10T14:37:07.413Z,7.05
2023-04-10T14:39:36.647Z,7.03
2023-04-10T14:42:07.141Z,7.93
2023-04-10T14:44:37.585Z,7.05
2023-04-10T14:47:06.732Z,7.85
2023-04-10T14:49:36.235Z,7.38
2023-04-10T14:52:05.827Z,7.70
2023-04-10T14:54:34.970Z,7.32
2023-04-10T14:57:04.427Z,8.10
2023-04-10T14:59:33.455Z,6.65
2023-04-10T15:02:03.944Z,7.05
2023-04-10T15:04:33.200Z,8.20
2023-04-10T15:07:02.225Z,6.30
2023-04-10T15:09:31.226Z,7.68
2023-04-10T15:12:00.234Z,7.68
2023-04-10T15:14:29.234Z,6.53
2023-04-10T15:16:58.362Z,6.55
2023-04-10T15:19:28.902Z,8.10
2023-04-10T15:21:57.968Z,8.43
2023-04-10T15:24:29.158Z,6.90
2023-04-10T15:26:59.791Z,7.07
2023-04-10T15:29:29.596Z,6.70
2023-04-10T15:32:01.081Z,6.40
2023-04-10T15:34:31.561Z,8.02
2023-04-10T15:37:00.552Z,8.38
2023-04-10T15:39:30.874Z,7.30
2023-04-10T15:42:00.355Z,7.10
2023-04-10T15:44:29.421Z,7.10
2023-04-10T15:46:58.400Z,6.72
2023-04-10T15:49:37.262Z,6.60
2023-04-10T15:52:09.036Z,7.25
2023-04-10T15:54:40.440Z,7.50
2023-04-10T15:57:09.467Z,6.88
2023-04-10T15:59:38.525Z,6.68
2023-04-10T16:02:08.219Z,6.68
2023-04-10T16:04:37.423Z,7.90
2023-04-10T16:07:07.979Z,5.88
2023-04-10T16:09:36.959Z,6.57
2023-04-10T16:12:06.443Z,6.22
2023-04-10T16:14:35.493Z,6.15
2023-04-10T16:17:04.505Z,6.20
2023-04-10T16:19:33.468Z,6.10
2023-04-10T16:22:02.511Z,5.60
2023-04-10T16:24:33.344Z,6.95
2023-04-10T16:27:02.612Z,8.30
2023-04-10T16:29:31.616Z,7.40
2023-04-10T16:32:00.608Z,6.38
2023-04-10T16:34:29.623Z,6.55
2023-04-10T16:36:58.638Z,7.38
2023-04-10T16:39:27.713Z,6.80
2023-04-10T16:41:58.286Z,5.35
2023-04-10T16:44:27.442Z,5.88
2023-04-10T16:46:56.537Z,6.18
2023-04-10T16:49:25.795Z,6.65
2023-04-10T16:51:54.823Z,6.55
2023-04-10T16:54:23.795Z,6.10
2023-04-10T16:56:52.826Z,6.25
2023-04-10T16:59:23.141Z,7.25
2023-04-10T17:01:52.908Z,10.07
2023-04-10T17:04:22.062Z,7.95
2023-04-10T17:06:52.301Z,7.72
2023-04-10T17:09:21.773Z,8.63
2023-04-10T17:11:53.228Z,8.32
2023-04-10T17:14:23.730Z,9.23
2023-04-10T17:16:52.841Z,7.97
2023-04-10T17:19:21.900Z,9.57
2023-04-10T17:21:52.262Z,10.13
2023-04-10T17:24:21.516Z,8.77
2023-04-10T17:26:51.003Z,9.48
2023-04-10T17:29:20.125Z,11.65
2023-04-10T17:31:50.677Z,11.25
2023-04-10T17:34:19.908Z,12.32
2023-04-10T17:36:49.768Z,10.98
2023-04-10T17:39:18.785Z,11.25
2023-04-10T17:41:47.752Z,9.55
2023-04-10T17:44:16.778Z,14.82
2023-04-10T17:46:46.271Z,9.45
2023-04-10T17:49:16.833Z,13.38
2023-04-10T17:51:45.971Z,12.50
2023-04-10T17:54:15.095Z,11.77
2023-04-10T17:56:44.206Z,10.32
2023-04-10T17:59:13.333Z,11.75
2023-04-10T18:01:42.467Z,13.18
2023-04-10T18:04:11.667Z,12.38
2023-04-10T18:06:42.052Z,10.68
2023-04-10T18:09:11.562Z,11.82
2023-04-10T18:11:41.443Z,10.65
2023-04-10T18:14:11.403Z,11.07
2023-04-10T18:16:40.417Z,19.38
2023-04-10T18:19:10.077Z,20.25
2023-04-10T18:21:41.893Z,24.25
2023-04-10T18:24:13.975Z,23.23
2023-04-10T18:26:43.130Z,73.28
2023-04-10T18:29:12.291Z,42.90
2023-04-10T18:31:41.287Z,36.28
2023-04-10T18:34:10.641Z,33.15
2023-04-10T18:36:40.045Z,17.42
2023-04-10T18:39:09.093Z,15.32
2023-04-10T18:41:41.537Z,11.00
2023-04-10T18:44:11.267Z,13.93
2023-04-10T18:46:42.741Z,12.73
2023-04-10T18:49:13.426Z,14.38
2023-04-10T18:51:42.613Z,13.80
2023-04-10T18:54:11.634Z,12.55
2023-04-10T18:56:42.157Z,14.23
2023-04-10T18:59:11.176Z,14.10
2023-04-10T19:01:40.830Z,11.65
2023-04-10T19:04:10.095Z,15.63
2023-04-10T19:06:41.057Z,12.93
2023-04-10T19:09:10.272Z,13.05
2023-04-10T19:11:43.448Z,16.50
2023-04-10T19:14:12.712Z,15.27
2023-04-10T19:16:41.901Z,18.30
2023-04-10T19:19:11.084Z,19.08
2023-04-10T19:21:40.403Z,18.48
2023-04-10T19:24:09.516Z,19.08
2023-04-10T19:26:38.614Z,20.17
2023-04-10T19:29:09.703Z,18.92
2023-04-10T19:31:38.848Z,19.20
2023-04-10T19:34:11.140Z,18.08
2023-04-10T19:36:41.861Z,18.85
2023-04-10T19:39:11.100Z,18.55
2023-04-10T19:41:42.406Z,18.38
2023-04-10T19:44:13.071Z,17.33
2023-04-10T19:46:43.286Z,14.95
2023-04-10T19:49:13.638Z,14.60
2023-04-10T19:51:42.900Z,16.38
2023-04-10T19:54:12.264Z,14.73
2023-04-10T19:56:41.440Z,16.33
2023-04-10T19:59:12.271Z,18.58
2023-04-10T20:01:41.569Z,15.98
2023-04-10T20:04:10.928Z,17.52
2023-04-10T20:06:41.720Z,17.52
2023-04-10T20:09:11.012Z,17.23
2023-04-10T20:11:40.174Z,16.02
2023-04-10T20:14:09.340Z,14.38
2023-04-10T20:16:41.013Z,15.68
2023-04-10T20:19:10.421Z,15.88
2023-04-10T20:21:40.351Z,14.02
2023-04-10T20:24:09.645Z,17.67
2023-04-10T20:26:41.551Z,19.40
2023-04-10T20:29:11.208Z,19.17
2023-04-10T20:31:42.555Z,21.20
2023-04-10T20:34:12.110Z,21.27
2023-04-10T20:36:41.940Z,22.42
2023-04-10T20:39:11.304Z,22.25
2023-04-10T20:41:40.494Z,23.00
2023-04-10T20:44:09.549Z,24.50
2023-04-10T20:46:38.646Z,18.30
2023-04-10T20:49:11.369Z,18.25
2023-04-10T20:51:40.754Z,18.83
2023-04-10T20:54:10.022Z,19.40
2023-04-10T20:56:43.560Z,20.70
2023-04-10T20:59:13.259Z,20.60
2023-04-10T21:01:42.295Z,21.27
2023-04-10T21:04:12.760Z,19.70
2023-04-10T21:06:42.586Z,22.00
2023-04-10T21:09:11.701Z,23.33
2023-04-10T21:11:40.767Z,24.08
2023-04-10T21:14:09.758Z,26.80
2023-04-10T21:16:42.549Z,22.33
2023-04-10T21:19:13.227Z,22.42
2023-04-10T21:21:42.396Z,19.77
2023-04-10T21:24:11.409Z,21.88
2023-04-10T21:26:42.981Z,22.48
2023-04-10T21:29:12.092Z,22.65
2023-04-10T21:31:41.196Z,24.63
2023-04-10T21:34:10.255Z,22.30
2023-04-10T21:36:41.255Z,21.33
2023-04-10T21:39:10.297Z,20.02
2023-04-10T21:41:40.141Z,20.63
2023-04-10T21:44:09.302Z,23.30
2023-04-10T21:46:38.364Z,23.02
2023-04-10T21:49:07.443Z,24.52
2023-04-10T21:51:36.596Z,25.55
2023-04-10T21:54:07.121Z,22.52
2023-04-10T21:56:38.720Z,24.83
2023-04-10T21:59:07.845Z,24.80
2023-04-10T22:01:37.158Z,22.48
2023-04-10T22:04:06.433Z,25.45
2023-04-10T22:06:35.612Z,26.95
2023-04-10T22:09:06.039Z,26.02
2023-04-10T22:11:37.199Z,26.25
2023-04-10T22:14:15.951Z,24.67
2023-04-10T22:16:47.292Z,22.70
2023-04-10T22:19:16.335Z,25.35
2023-04-10T22:21:45.364Z,22.27
2023-04-10T22:24:15.833Z,24.77
2023-04-10T22:26:46.127Z,22.50
2023-04-10T22:29:15.703Z,22.33
2023-04-10T22:31:45.313Z,24.75
2023-04-10T22:34:17.025Z,26.88
2023-04-10T22:36:46.093Z,26.02
2023-04-10T22:39:16.536Z,24.45
2023-04-10T22:41:45.706Z,24.45
2023-04-10T22:44:14.764Z,27.08
2023-04-10T22:46:43.838Z,27.40
2023-04-10T22:49:17.009Z,26.42
2023-04-10T22:51:46.743Z,26.13
2023-04-10T22:54:17.219Z,24.98
2023-04-10T22:56:46.217Z,27.85
2023-04-10T22:59:15.530Z,28.45
2023-04-10T23:01:44.585Z,27.65
2023-04-10T23:04:13.643Z,26.85
2023-04-10T23:06:42.712Z,26.45
2023-04-10T23:09:11.792Z,27.70
2023-04-10T23:11:42.214Z,27.02
2023-04-10T23:14:11.268Z,26.17
2023-04-10T23:16:40.354Z,24.60
2023-04-10T23:19:09.397Z,31.00
2023-04-10T23:21:38.437Z,26.73
2023-04-10T23:24:08.150Z,30.20
2023-04-10T23:26:37.214Z,33.50
2023-04-10T23:29:07.599Z,29.15
2023-04-10T23:31:36.678Z,29.80
2023-04-10T23:34:05.743Z,34.15
2023-04-10T23:36:34.708Z,28.95
2023-04-10T23:39:03.745Z,29.48
2023-04-10T23:41:32.756Z,29.80
2023-04-10T23:44:01.826Z,29.55
2023-04-10T23:46:32.306Z,27.58
2023-04-10T23:49:01.366Z,25.42
2023-04-10T23:51:31.953Z,28.35
2023-04-10T23:54:01.010Z,27.67
2023-04-10T23:56:31.062Z,24.83
2023-04-10T23:59:00.180Z,26.05
